Share

Futenma Marine Corps Air Facility, Japan

4:31 PM JST on April 24, 2014 (GMT +0900)
Naha (ROAH) Elev 20 ft | 26.20 °N, 127.65 °E | Change Station

Current weather conditions updated 31 minutes ago

Light Rain
Light Rain
68 °F
Feels Like 68 °F
N
14
Wind Variable Wind from East
Gusts 25 mph
Sunrise 5:57 AM
Sunset 6:56 PM
Moon Waning Crescent

Tomorrow is forecast to be nearly the same temperature as today. Light rain.

Pressure 29.95 in
Visibility 5.0 miles
Clouds Few 1300 ft
Scattered Clouds 2000 ft
Mostly Cloudy 6000 ft
Dew Point 63 °F
Humidity 83%
Rainfall 0.00 in
Snow Depth Not available.
UV 3 out of 16
Pollen Not available.
Air Quality Not available.
Flu Activity Not available.
METAR ROAH 240700Z 08012G22KT 040V110 8000 -RA FEW013 SCT020 BKN060 20/17 Q1014 RMK 1CU013 3CU020 7SC060 A2997

More Conditions Fewer Conditions

Pressure 29.95 in
Visibility 5.0 miles
Clouds Few 1300 ft
Scattered Clouds 2000 ft
Mostly Cloudy 6000 ft
Dew Point 63 °F
Humidity 83%
Rainfall 0.00 in
Snow Depth Not available.
UV 3 out of 16
Pollen Not available.
Air Quality Not available.
Flu Activity Not available.
METAR ROAH 240700Z 08012G22KT 040V110 8000 -RA FEW013 SCT020 BKN060 20/17 Q1014 RMK 1CU013 3CU020 7SC060 A2997

More Conditions Fewer Conditions

10-Day Weather Forecast

Almanac

Astronomy

Apr. 24, 2014 Rise Set
Actual Time 5:57 AM JST 6:56 PM JST
Civil Twilight 5:33 AM JST 7:20 PM JST
Nautical Twilight 5:05 AM JST 7:49 PM JST
Astronomical Twilight 4:36 AM JST 8:18 PM JST
Moon 2:12 AM JST 2:02 PM JST
Length of Visible Light 13h 47m
Length of Day
12h 59m
Tomorrow will be 1m 23s longer.
Waning Crescent, 28% of the Moon is Illuminated
Today
Waning Crescent
Apr 29
New
May 6
First Quarter
May 14
Full
May 21
Last Quarter

Yesterday's Extremes

Country Highs Country Lows

Community

  • Stacked
    Stacked
  • clouds approaching Red Sox Nation
    clouds approaching Red Sox Nation
  • Balance
    Balance
  • Nestled In
    Nestled In
  • Stunning Sunrise
    Stunning Sunrise

WunderPhotos

Upload Photos

1,704,571 photos uploaded!

WunderBlogs® & News

Nearby

Snow Depth

Not available.

Coastal Water Temperatures

Place Temperature
No Stations Reporting

Earthquake Activity

City Distance Mag. Time & Date
No recent earthquake activity has been reported nearby.
Minimum magnitude displayed is 2.5.

Nearby Weather Stations

Station Location Temp. Dew Point Humidity Wind Precip. Elev Updated Type
Camp Hansen Range Control Okinawa Japan, Kin 65.5 °F 59 °F 80% ESE  at  16.0 mph 0.01 in / hr 210 ft 4:31 PM JST Normal

Show More Stations Show Fewer Stations

What do you think?

We're not finished. Please let us know what you like, what you don't like, and what you are still missing.